sensor_id;sensor_type;location;lat;lon;timestamp;P1;durP1;ratioP1;P2;durP2;ratioP2
13941;SDS011;7043;51.630;7.254;2023-11-19T00:00:38;8.83;;;8.07;;
13941;SDS011;7043;51.630;7.254;2023-11-19T00:03:04;8.77;;;8.07;;
13941;SDS011;7043;51.630;7.254;2023-11-19T00:05:31;9.47;;;8.67;;
13941;SDS011;7043;51.630;7.254;2023-11-19T00:07:57;8.93;;;8.13;;
13941;SDS011;7043;51.630;7.254;2023-11-19T00:10:23;10.20;;;9.20;;
13941;SDS011;7043;51.630;7.254;2023-11-19T00:12:49;10.93;;;10.03;;
13941;SDS011;7043;51.630;7.254;2023-11-19T00:15:15;11.47;;;10.43;;
13941;SDS011;7043;51.630;7.254;2023-11-19T00:17:44;18.40;;;16.90;;
13941;SDS011;7043;51.630;7.254;2023-11-19T00:20:10;12.23;;;11.13;;
13941;SDS011;7043;51.630;7.254;2023-11-19T00:22:37;12.00;;;10.90;;
13941;SDS011;7043;51.630;7.254;2023-11-19T00:25:03;11.97;;;10.73;;
13941;SDS011;7043;51.630;7.254;2023-11-19T00:27:30;13.40;;;11.67;;
13941;SDS011;7043;51.630;7.254;2023-11-19T00:29:56;13.10;;;11.80;;
13941;SDS011;7043;51.630;7.254;2023-11-19T00:32:22;12.20;;;11.10;;
13941;SDS011;7043;51.630;7.254;2023-11-19T00:34:49;12.47;;;11.37;;
13941;SDS011;7043;51.630;7.254;2023-11-19T00:37:16;12.97;;;11.77;;
13941;SDS011;7043;51.630;7.254;2023-11-19T00:39:44;14.27;;;12.80;;
13941;SDS011;7043;51.630;7.254;2023-11-19T00:42:11;15.50;;;14.10;;
13941;SDS011;7043;51.630;7.254;2023-11-19T00:44:37;14.73;;;13.43;;
13941;SDS011;7043;51.630;7.254;2023-11-19T00:47:03;16.37;;;14.87;;
13941;SDS011;7043;51.630;7.254;2023-11-19T00:49:30;16.30;;;14.80;;
13941;SDS011;7043;51.630;7.254;2023-11-19T00:51:57;17.33;;;15.73;;
13941;SDS011;7043;51.630;7.254;2023-11-19T00:54:24;18.33;;;16.63;;
13941;SDS011;7043;51.630;7.254;2023-11-19T00:56:51;20.50;;;18.60;;
13941;SDS011;7043;51.630;7.254;2023-11-19T00:59:18;21.13;;;19.13;;
13941;SDS011;7043;51.630;7.254;2023-11-19T01:01:44;23.03;;;21.03;;
13941;SDS011;7043;51.630;7.254;2023-11-19T01:04:10;24.87;;;22.57;;
13941;SDS011;7043;51.630;7.254;2023-11-19T01:06:36;24.07;;;21.77;;
13941;SDS011;7043;51.630;7.254;2023-11-19T01:09:02;24.33;;;21.27;;
13941;SDS011;7043;51.630;7.254;2023-11-19T01:11:31;23.53;;;21.27;;
13941;SDS011;7043;51.630;7.254;2023-11-19T01:13:57;24.60;;;22.33;;
13941;SDS011;7043;51.630;7.254;2023-11-19T01:16:23;22.80;;;20.60;;
13941;SDS011;7043;51.630;7.254;2023-11-19T01:18:49;24.70;;;22.20;;
13941;SDS011;7043;51.630;7.254;2023-11-19T01:21:15;23.67;;;21.33;;
13941;SDS011;7043;51.630;7.254;2023-11-19T01:23:44;26.23;;;23.83;;
13941;SDS011;7043;51.630;7.254;2023-11-19T01:26:11;25.63;;;22.97;;
13941;SDS011;7043;51.630;7.254;2023-11-19T01:28:37;26.13;;;23.63;;
13941;SDS011;7043;51.630;7.254;2023-11-19T01:31:04;29.70;;;26.80;;
13941;SDS011;7043;51.630;7.254;2023-11-19T01:33:31;28.33;;;25.50;;
13941;SDS011;7043;51.630;7.254;2023-11-19T01:35:57;28.70;;;26.00;;
13941;SDS011;7043;51.630;7.254;2023-11-19T01:38:24;27.50;;;24.67;;
13941;SDS011;7043;51.630;7.254;2023-11-19T01:40:50;28.17;;;25.47;;
13941;SDS011;7043;51.630;7.254;2023-11-19T01:43:35;27.90;;;25.13;;
13941;SDS011;7043;51.630;7.254;2023-11-19T01:46:02;25.47;;;23.10;;
13941;SDS011;7043;51.630;7.254;2023-11-19T01:48:28;26.63;;;24.03;;
13941;SDS011;7043;51.630;7.254;2023-11-19T01:50:55;24.07;;;21.67;;
13941;SDS011;7043;51.630;7.254;2023-11-19T01:53:21;22.53;;;20.53;;
13941;SDS011;7043;51.630;7.254;2023-11-19T01:55:47;23.93;;;21.70;;
13941;SDS011;7043;51.630;7.254;2023-11-19T01:58:14;23.77;;;21.47;;
13941;SDS011;7043;51.630;7.254;2023-11-19T02:00:40;22.47;;;20.47;;
13941;SDS011;7043;51.630;7.254;2023-11-19T02:03:06;18.70;;;17.00;;
13941;SDS011;7043;51.630;7.254;2023-11-19T02:05:33;15.67;;;14.07;;
13941;SDS011;7043;51.630;7.254;2023-11-19T02:07:59;18.67;;;16.97;;
13941;SDS011;7043;51.630;7.254;2023-11-19T02:10:26;18.80;;;17.00;;
13941;SDS011;7043;51.630;7.254;2023-11-19T02:12:52;19.43;;;17.73;;
13941;SDS011;7043;51.630;7.254;2023-11-19T02:15:18;18.37;;;16.77;;
13941;SDS011;7043;51.630;7.254;2023-11-19T02:17:44;16.40;;;15.00;;
13941;SDS011;7043;51.630;7.254;2023-11-19T02:20:10;16.30;;;14.80;;
13941;SDS011;7043;51.630;7.254;2023-11-19T02:22:38;16.60;;;15.20;;
13941;SDS011;7043;51.630;7.254;2023-11-19T02:25:06;16.20;;;14.80;;
13941;SDS011;7043;51.630;7.254;2023-11-19T02:30:02;14.60;;;13.30;;
13941;SDS011;7043;51.630;7.254;2023-11-19T02:32:31;14.00;;;12.63;;
13941;SDS011;7043;51.630;7.254;2023-11-19T02:34:57;14.87;;;13.57;;
13941;SDS011;7043;51.630;7.254;2023-11-19T02:37:23;13.97;;;12.77;;
13941;SDS011;7043;51.630;7.254;2023-11-19T02:39:49;13.73;;;12.43;;
13941;SDS011;7043;51.630;7.254;2023-11-19T02:42:15;13.50;;;12.10;;
13941;SDS011;7043;51.630;7.254;2023-11-19T02:44:43;12.17;;;11.17;;
13941;SDS011;7043;51.630;7.254;2023-11-19T02:47:10;11.60;;;10.50;;
13941;SDS011;7043;51.630;7.254;2023-11-19T02:49:36;11.80;;;10.13;;
13941;SDS011;7043;51.630;7.254;2023-11-19T02:52:02;10.23;;;9.23;;
13941;SDS011;7043;51.630;7.254;2023-11-19T02:54:48;11.03;;;10.00;;
13941;SDS011;7043;51.630;7.254;2023-11-19T02:57:15;11.03;;;9.73;;
13941;SDS011;7043;51.630;7.254;2023-11-19T02:59:44;11.90;;;9.57;;
13941;SDS011;7043;51.630;7.254;2023-11-19T03:02:10;11.70;;;9.43;;
13941;SDS011;7043;51.630;7.254;2023-11-19T03:04:37;9.47;;;8.43;;
13941;SDS011;7043;51.630;7.254;2023-11-19T03:07:04;11.83;;;9.30;;
13941;SDS011;7043;51.630;7.254;2023-11-19T03:09:30;11.83;;;9.77;;
13941;SDS011;7043;51.630;7.254;2023-11-19T03:11:56;10.90;;;9.00;;
13941;SDS011;7043;51.630;7.254;2023-11-19T03:14:22;12.93;;;10.00;;
13941;SDS011;7043;51.630;7.254;2023-11-19T03:16:48;14.03;;;9.20;;
13941;SDS011;7043;51.630;7.254;2023-11-19T03:19:15;13.37;;;8.90;;
13941;SDS011;7043;51.630;7.254;2023-11-19T03:21:41;14.80;;;9.27;;
13941;SDS011;7043;51.630;7.254;2023-11-19T03:24:07;14.10;;;8.50;;
13941;SDS011;7043;51.630;7.254;2023-11-19T03:26:34;12.40;;;8.17;;
13941;SDS011;7043;51.630;7.254;2023-11-19T03:29:00;13.57;;;7.33;;
13941;SDS011;7043;51.630;7.254;2023-11-19T03:31:26;11.23;;;6.47;;
13941;SDS011;7043;51.630;7.254;2023-11-19T03:33:52;15.10;;;7.50;;
13941;SDS011;7043;51.630;7.254;2023-11-19T03:36:19;13.13;;;6.90;;
13941;SDS011;7043;51.630;7.254;2023-11-19T03:38:45;13.07;;;6.97;;
13941;SDS011;7043;51.630;7.254;2023-11-19T03:41:14;14.37;;;6.53;;
13941;SDS011;7043;51.630;7.254;2023-11-19T03:43:42;9.37;;;5.77;;
13941;SDS011;7043;51.630;7.254;2023-11-19T03:46:18;11.03;;;6.07;;
13941;SDS011;7043;51.630;7.254;2023-11-19T03:48:44;9.70;;;5.57;;
13941;SDS011;7043;51.630;7.254;2023-11-19T03:51:11;9.17;;;5.90;;
13941;SDS011;7043;51.630;7.254;2023-11-19T03:53:40;11.33;;;6.10;;
13941;SDS011;7043;51.630;7.254;2023-11-19T03:56:06;12.60;;;5.37;;
13941;SDS011;7043;51.630;7.254;2023-11-19T03:58:34;8.90;;;5.03;;
13941;SDS011;7043;51.630;7.254;2023-11-19T04:01:00;15.03;;;6.47;;
13941;SDS011;7043;51.630;7.254;2023-11-19T04:03:27;13.13;;;5.23;;
13941;SDS011;7043;51.630;7.254;2023-11-19T04:05:53;13.00;;;4.77;;
13941;SDS011;7043;51.630;7.254;2023-11-19T04:08:19;12.30;;;4.80;;
13941;SDS011;7043;51.630;7.254;2023-11-19T04:10:45;13.40;;;4.27;;
13941;SDS011;7043;51.630;7.254;2023-11-19T04:13:11;12.13;;;4.83;;
13941;SDS011;7043;51.630;7.254;2023-11-19T04:15:37;12.93;;;4.87;;
13941;SDS011;7043;51.630;7.254;2023-11-19T04:18:03;14.23;;;4.68;;
13941;SDS011;7043;51.630;7.254;2023-11-19T04:20:29;9.10;;;3.27;;
13941;SDS011;7043;51.630;7.254;2023-11-19T04:22:56;10.87;;;3.67;;
13941;SDS011;7043;51.630;7.254;2023-11-19T04:25:22;13.10;;;4.53;;
13941;SDS011;7043;51.630;7.254;2023-11-19T04:27:51;13.77;;;3.63;;
13941;SDS011;7043;51.630;7.254;2023-11-19T04:30:17;16.03;;;3.67;;
13941;SDS011;7043;51.630;7.254;2023-11-19T04:32:43;10.97;;;3.47;;
13941;SDS011;7043;51.630;7.254;2023-11-19T04:35:09;12.43;;;4.27;;
13941;SDS011;7043;51.630;7.254;2023-11-19T04:37:36;11.63;;;3.70;;
13941;SDS011;7043;51.630;7.254;2023-11-19T04:40:02;17.17;;;4.60;;
13941;SDS011;7043;51.630;7.254;2023-11-19T04:42:28;16.57;;;4.37;;
13941;SDS011;7043;51.630;7.254;2023-11-19T04:44:55;16.63;;;4.13;;
13941;SDS011;7043;51.630;7.254;2023-11-19T04:47:21;16.03;;;3.67;;
13941;SDS011;7043;51.630;7.254;2023-11-19T04:49:47;20.63;;;3.83;;
13941;SDS011;7043;51.630;7.254;2023-11-19T04:52:13;19.10;;;3.93;;
13941;SDS011;7043;51.630;7.254;2023-11-19T04:54:42;20.97;;;4.33;;
13941;SDS011;7043;51.630;7.254;2023-11-19T04:57:09;13.90;;;3.27;;
13941;SDS011;7043;51.630;7.254;2023-11-19T04:59:38;15.50;;;4.03;;
13941;SDS011;7043;51.630;7.254;2023-11-19T05:02:04;15.17;;;3.53;;
13941;SDS011;7043;51.630;7.254;2023-11-19T05:04:30;22.97;;;4.37;;
13941;SDS011;7043;51.630;7.254;2023-11-19T05:06:56;17.27;;;3.70;;
13941;SDS011;7043;51.630;7.254;2023-11-19T05:09:22;15.53;;;3.47;;
13941;SDS011;7043;51.630;7.254;2023-11-19T05:11:48;15.07;;;3.90;;
13941;SDS011;7043;51.630;7.254;2023-11-19T05:14:15;18.40;;;4.00;;
13941;SDS011;7043;51.630;7.254;2023-11-19T05:16:41;24.90;;;4.40;;
13941;SDS011;7043;51.630;7.254;2023-11-19T05:19:10;13.53;;;4.00;;
13941;SDS011;7043;51.630;7.254;2023-11-19T05:21:36;19.43;;;4.43;;
13941;SDS011;7043;51.630;7.254;2023-11-19T05:24:02;23.40;;;4.77;;
13941;SDS011;7043;51.630;7.254;2023-11-19T05:26:31;18.57;;;4.53;;
13941;SDS011;7043;51.630;7.254;2023-11-19T05:28:57;21.97;;;4.60;;
13941;SDS011;7043;51.630;7.254;2023-11-19T05:31:23;19.00;;;4.60;;
13941;SDS011;7043;51.630;7.254;2023-11-19T05:33:49;19.97;;;5.10;;
13941;SDS011;7043;51.630;7.254;2023-11-19T05:36:15;21.97;;;5.43;;
13941;SDS011;7043;51.630;7.254;2023-11-19T05:38:41;26.00;;;7.47;;
13941;SDS011;7043;51.630;7.254;2023-11-19T05:41:07;32.20;;;12.27;;
13941;SDS011;7043;51.630;7.254;2023-11-19T05:43:33;22.47;;;8.43;;
13941;SDS011;7043;51.630;7.254;2023-11-19T05:45:59;27.30;;;10.13;;
13941;SDS011;7043;51.630;7.254;2023-11-19T05:48:26;24.20;;;6.23;;
13941;SDS011;7043;51.630;7.254;2023-11-19T05:50:52;20.17;;;4.87;;
13941;SDS011;7043;51.630;7.254;2023-11-19T05:53:19;20.33;;;5.07;;
13941;SDS011;7043;51.630;7.254;2023-11-19T05:55:45;22.07;;;5.53;;
13941;SDS011;7043;51.630;7.254;2023-11-19T05:58:14;21.37;;;5.60;;
13941;SDS011;7043;51.630;7.254;2023-11-19T06:00:41;14.50;;;3.70;;
13941;SDS011;7043;51.630;7.254;2023-11-19T06:03:07;18.53;;;5.23;;
13941;SDS011;7043;51.630;7.254;2023-11-19T06:05:33;18.00;;;4.90;;
13941;SDS011;7043;51.630;7.254;2023-11-19T06:07:59;15.80;;;4.17;;
13941;SDS011;7043;51.630;7.254;2023-11-19T06:10:25;15.87;;;4.10;;
13941;SDS011;7043;51.630;7.254;2023-11-19T06:12:59;16.83;;;4.20;;
13941;SDS011;7043;51.630;7.254;2023-11-19T06:15:26;15.57;;;3.97;;
13941;SDS011;7043;51.630;7.254;2023-11-19T06:17:55;18.43;;;4.57;;
13941;SDS011;7043;51.630;7.254;2023-11-19T06:20:23;24.10;;;7.43;;
13941;SDS011;7043;51.630;7.254;2023-11-19T06:22:49;16.97;;;4.60;;
13941;SDS011;7043;51.630;7.254;2023-11-19T06:25:15;21.60;;;4.77;;
13941;SDS011;7043;51.630;7.254;2023-11-19T06:27:42;18.93;;;5.07;;
13941;SDS011;7043;51.630;7.254;2023-11-19T06:30:08;20.97;;;4.83;;
13941;SDS011;7043;51.630;7.254;2023-11-19T06:32:34;18.13;;;5.17;;
13941;SDS011;7043;51.630;7.254;2023-11-19T06:35:00;19.40;;;5.40;;
13941;SDS011;7043;51.630;7.254;2023-11-19T06:37:26;18.50;;;4.13;;
13941;SDS011;7043;51.630;7.254;2023-11-19T06:39:52;16.07;;;4.40;;
13941;SDS011;7043;51.630;7.254;2023-11-19T06:42:18;20.57;;;4.50;;
13941;SDS011;7043;51.630;7.254;2023-11-19T06:44:44;18.20;;;5.07;;
13941;SDS011;7043;51.630;7.254;2023-11-19T06:47:10;19.77;;;4.67;;
13941;SDS011;7043;51.630;7.254;2023-11-19T06:49:36;26.33;;;6.10;;
13941;SDS011;7043;51.630;7.254;2023-11-19T06:52:03;20.57;;;4.07;;
13941;SDS011;7043;51.630;7.254;2023-11-19T06:54:29;20.10;;;4.90;;
13941;SDS011;7043;51.630;7.254;2023-11-19T06:56:56;20.77;;;5.30;;
13941;SDS011;7043;51.630;7.254;2023-11-19T06:59:22;18.27;;;4.73;;
13941;SDS011;7043;51.630;7.254;2023-11-19T07:01:48;25.27;;;5.67;;
13941;SDS011;7043;51.630;7.254;2023-11-19T07:04:14;20.00;;;4.57;;
13941;SDS011;7043;51.630;7.254;2023-11-19T07:06:40;22.37;;;4.57;;
13941;SDS011;7043;51.630;7.254;2023-11-19T07:09:07;19.30;;;5.00;;
13941;SDS011;7043;51.630;7.254;2023-11-19T07:11:37;19.20;;;4.73;;
13941;SDS011;7043;51.630;7.254;2023-11-19T07:14:03;21.00;;;4.93;;
13941;SDS011;7043;51.630;7.254;2023-11-19T07:16:30;22.27;;;5.07;;
13941;SDS011;7043;51.630;7.254;2023-11-19T07:18:56;18.17;;;4.90;;
13941;SDS011;7043;51.630;7.254;2023-11-19T07:21:23;18.47;;;5.30;;
13941;SDS011;7043;51.630;7.254;2023-11-19T07:23:49;20.73;;;5.03;;
13941;SDS011;7043;51.630;7.254;2023-11-19T07:26:16;18.63;;;4.57;;
13941;SDS011;7043;51.630;7.254;2023-11-19T07:28:42;18.47;;;4.50;;
13941;SDS011;7043;51.630;7.254;2023-11-19T07:31:10;19.17;;;4.67;;
13941;SDS011;7043;51.630;7.254;2023-11-19T07:33:36;22.57;;;5.57;;
13941;SDS011;7043;51.630;7.254;2023-11-19T07:36:02;25.60;;;5.47;;
13941;SDS011;7043;51.630;7.254;2023-11-19T07:38:28;23.77;;;6.13;;
13941;SDS011;7043;51.630;7.254;2023-11-19T07:40:54;24.37;;;5.27;;
13941;SDS011;7043;51.630;7.254;2023-11-19T07:43:20;21.50;;;4.17;;
13941;SDS011;7043;51.630;7.254;2023-11-19T07:45:46;19.83;;;4.83;;
13941;SDS011;7043;51.630;7.254;2023-11-19T07:48:12;20.10;;;5.00;;
13941;SDS011;7043;51.630;7.254;2023-11-19T07:50:39;23.47;;;5.40;;
13941;SDS011;7043;51.630;7.254;2023-11-19T07:53:06;21.77;;;4.67;;
13941;SDS011;7043;51.630;7.254;2023-11-19T07:55:33;22.07;;;5.37;;
13941;SDS011;7043;51.630;7.254;2023-11-19T07:57:59;18.03;;;4.20;;
13941;SDS011;7043;51.630;7.254;2023-11-19T08:00:26;22.03;;;5.03;;
13941;SDS011;7043;51.630;7.254;2023-11-19T08:02:52;17.53;;;4.47;;
13941;SDS011;7043;51.630;7.254;2023-11-19T08:05:18;21.00;;;4.17;;
13941;SDS011;7043;51.630;7.254;2023-11-19T08:07:44;23.53;;;5.40;;
13941;SDS011;7043;51.630;7.254;2023-11-19T08:10:10;25.87;;;5.30;;
13941;SDS011;7043;51.630;7.254;2023-11-19T08:12:36;25.57;;;4.70;;
13941;SDS011;7043;51.630;7.254;2023-11-19T08:15:02;21.90;;;4.63;;
13941;SDS011;7043;51.630;7.254;2023-11-19T08:17:29;21.60;;;4.33;;
13941;SDS011;7043;51.630;7.254;2023-11-19T08:19:56;21.47;;;4.77;;
13941;SDS011;7043;51.630;7.254;2023-11-19T08:22:22;14.87;;;3.87;;
13941;SDS011;7043;51.630;7.254;2023-11-19T08:24:48;20.30;;;4.23;;
13941;SDS011;7043;51.630;7.254;2023-11-19T08:27:14;16.87;;;4.03;;
13941;SDS011;7043;51.630;7.254;2023-11-19T08:29:40;15.47;;;5.27;;
13941;SDS011;7043;51.630;7.254;2023-11-19T08:32:06;21.93;;;4.63;;
13941;SDS011;7043;51.630;7.254;2023-11-19T08:34:32;15.27;;;3.77;;
13941;SDS011;7043;51.630;7.254;2023-11-19T08:36:59;20.13;;;4.57;;
13941;SDS011;7043;51.630;7.254;2023-11-19T08:39:26;26.97;;;4.80;;
13941;SDS011;7043;51.630;7.254;2023-11-19T08:41:52;18.50;;;4.77;;
13941;SDS011;7043;51.630;7.254;2023-11-19T08:44:18;20.87;;;5.93;;
13941;SDS011;7043;51.630;7.254;2023-11-19T08:46:50;23.00;;;5.10;;
13941;SDS011;7043;51.630;7.254;2023-11-19T08:49:17;22.53;;;5.00;;
13941;SDS011;7043;51.630;7.254;2023-11-19T08:51:43;18.50;;;4.10;;
13941;SDS011;7043;51.630;7.254;2023-11-19T08:54:10;20.00;;;4.53;;
13941;SDS011;7043;51.630;7.254;2023-11-19T08:56:37;23.17;;;5.63;;
13941;SDS011;7043;51.630;7.254;2023-11-19T08:59:04;21.90;;;5.47;;
13941;SDS011;7043;51.630;7.254;2023-11-19T09:01:30;27.80;;;5.50;;
13941;SDS011;7043;51.630;7.254;2023-11-19T09:03:56;22.47;;;4.97;;
13941;SDS011;7043;51.630;7.254;2023-11-19T09:06:22;28.77;;;5.67;;
13941;SDS011;7043;51.630;7.254;2023-11-19T09:08:48;19.80;;;4.60;;
13941;SDS011;7043;51.630;7.254;2023-11-19T09:11:15;18.83;;;4.77;;
13941;SDS011;7043;51.630;7.254;2023-11-19T09:13:42;18.13;;;4.67;;
13941;SDS011;7043;51.630;7.254;2023-11-19T09:16:11;24.10;;;5.67;;
13941;SDS011;7043;51.630;7.254;2023-11-19T09:18:37;24.60;;;5.90;;
13941;SDS011;7043;51.630;7.254;2023-11-19T09:21:03;20.80;;;5.13;;
13941;SDS011;7043;51.630;7.254;2023-11-19T09:23:29;23.27;;;5.30;;
13941;SDS011;7043;51.630;7.254;2023-11-19T09:26:00;19.17;;;5.13;;
13941;SDS011;7043;51.630;7.254;2023-11-19T09:28:27;17.70;;;4.30;;
13941;SDS011;7043;51.630;7.254;2023-11-19T09:30:53;16.63;;;4.40;;
13941;SDS011;7043;51.630;7.254;2023-11-19T09:33:19;20.10;;;5.63;;
13941;SDS011;7043;51.630;7.254;2023-11-19T09:35:45;19.47;;;4.83;;
13941;SDS011;7043;51.630;7.254;2023-11-19T09:38:11;18.53;;;5.53;;
13941;SDS011;7043;51.630;7.254;2023-11-19T09:40:37;20.70;;;5.33;;
13941;SDS011;7043;51.630;7.254;2023-11-19T09:43:03;26.00;;;4.97;;
13941;SDS011;7043;51.630;7.254;2023-11-19T09:45:30;22.27;;;5.25;;
13941;SDS011;7043;51.630;7.254;2023-11-19T09:48:01;22.37;;;5.20;;
13941;SDS011;7043;51.630;7.254;2023-11-19T09:50:28;24.73;;;4.73;;
13941;SDS011;7043;51.630;7.254;2023-11-19T09:52:54;21.97;;;4.33;;
13941;SDS011;7043;51.630;7.254;2023-11-19T09:55:20;23.38;;;5.60;;
13941;SDS011;7043;51.630;7.254;2023-11-19T09:57:46;19.33;;;4.73;;
13941;SDS011;7043;51.630;7.254;2023-11-19T10:00:13;25.33;;;5.37;;
13941;SDS011;7043;51.630;7.254;2023-11-19T10:02:40;19.13;;;4.53;;
13941;SDS011;7043;51.630;7.254;2023-11-19T10:05:06;17.87;;;4.77;;
13941;SDS011;7043;51.630;7.254;2023-11-19T10:07:33;22.77;;;4.50;;
13941;SDS011;7043;51.630;7.254;2023-11-19T10:10:09;13.40;;;3.93;;
13941;SDS011;7043;51.630;7.254;2023-11-19T10:12:43;25.83;;;4.87;;
13941;SDS011;7043;51.630;7.254;2023-11-19T10:15:17;20.70;;;5.43;;
13941;SDS011;7043;51.630;7.254;2023-11-19T10:17:46;22.03;;;4.93;;
13941;SDS011;7043;51.630;7.254;2023-11-19T10:20:12;16.25;;;4.68;;
13941;SDS011;7043;51.630;7.254;2023-11-19T10:22:38;19.70;;;5.30;;
13941;SDS011;7043;51.630;7.254;2023-11-19T10:25:05;20.50;;;5.00;;
13941;SDS011;7043;51.630;7.254;2023-11-19T10:27:33;19.03;;;5.43;;
13941;SDS011;7043;51.630;7.254;2023-11-19T10:30:00;21.67;;;4.73;;
13941;SDS011;7043;51.630;7.254;2023-11-19T10:32:33;22.17;;;5.60;;
13941;SDS011;7043;51.630;7.254;2023-11-19T10:35:09;18.67;;;5.40;;
13941;SDS011;7043;51.630;7.254;2023-11-19T10:37:37;18.70;;;4.80;;
13941;SDS011;7043;51.630;7.254;2023-11-19T10:40:03;24.83;;;5.17;;
13941;SDS011;7043;51.630;7.254;2023-11-19T10:42:35;25.57;;;5.80;;
13941;SDS011;7043;51.630;7.254;2023-11-19T10:45:02;22.83;;;5.50;;
13941;SDS011;7043;51.630;7.254;2023-11-19T10:47:28;17.10;;;4.63;;
13941;SDS011;7043;51.630;7.254;2023-11-19T10:49:55;26.57;;;5.80;;
13941;SDS011;7043;51.630;7.254;2023-11-19T10:52:21;19.93;;;5.17;;
13941;SDS011;7043;51.630;7.254;2023-11-19T10:54:49;22.03;;;4.83;;
13941;SDS011;7043;51.630;7.254;2023-11-19T10:57:19;20.07;;;4.97;;
13941;SDS011;7043;51.630;7.254;2023-11-19T10:59:46;24.67;;;5.60;;
13941;SDS011;7043;51.630;7.254;2023-11-19T11:02:13;22.50;;;5.03;;
13941;SDS011;7043;51.630;7.254;2023-11-19T11:04:42;22.90;;;5.00;;
13941;SDS011;7043;51.630;7.254;2023-11-19T11:07:08;23.00;;;5.33;;
13941;SDS011;7043;51.630;7.254;2023-11-19T11:09:35;18.50;;;4.53;;
13941;SDS011;7043;51.630;7.254;2023-11-19T11:12:01;22.70;;;5.20;;
13941;SDS011;7043;51.630;7.254;2023-11-19T11:14:31;20.88;;;4.78;;
13941;SDS011;7043;51.630;7.254;2023-11-19T11:16:58;23.37;;;5.47;;
13941;SDS011;7043;51.630;7.254;2023-11-19T11:19:24;21.03;;;5.23;;
13941;SDS011;7043;51.630;7.254;2023-11-19T11:21:50;16.37;;;4.53;;
13941;SDS011;7043;51.630;7.254;2023-11-19T11:32:59;19.10;;;4.78;;
13941;SDS011;7043;51.630;7.254;2023-11-19T11:35:23;20.47;;;5.87;;
13941;SDS011;7043;51.630;7.254;2023-11-19T11:37:53;23.43;;;5.07;;
13941;SDS011;7043;51.630;7.254;2023-11-19T11:40:24;24.70;;;5.13;;
13941;SDS011;7043;51.630;7.254;2023-11-19T11:42:51;20.70;;;4.65;;
13941;SDS011;7043;51.630;7.254;2023-11-19T11:45:18;25.30;;;5.77;;
13941;SDS011;7043;51.630;7.254;2023-11-19T11:50:23;20.65;;;4.70;;
13941;SDS011;7043;51.630;7.254;2023-11-19T11:58:17;20.40;;;4.77;;
13941;SDS011;7043;51.630;7.254;2023-11-19T12:00:43;19.57;;;5.43;;
13941;SDS011;7043;51.630;7.254;2023-11-19T12:03:09;20.80;;;5.53;;
13941;SDS011;7043;51.630;7.254;2023-11-19T12:05:43;24.03;;;4.63;;
13941;SDS011;7043;51.630;7.254;2023-11-19T12:08:10;18.80;;;4.80;;
13941;SDS011;7043;51.630;7.254;2023-11-19T12:10:38;18.42;;;4.88;;
13941;SDS011;7043;51.630;7.254;2023-11-19T12:13:09;18.42;;;5.07;;
13941;SDS011;7043;51.630;7.254;2023-11-19T12:18:31;21.33;;;4.95;;
13941;SDS011;7043;51.630;7.254;2023-11-19T12:20:59;18.38;;;4.57;;
13941;SDS011;7043;51.630;7.254;2023-11-19T12:23:29;15.88;;;4.47;;
13941;SDS011;7043;51.630;7.254;2023-11-19T12:25:55;17.55;;;4.90;;
13941;SDS011;7043;51.630;7.254;2023-11-19T12:28:22;16.25;;;4.47;;
13941;SDS011;7043;51.630;7.254;2023-11-19T12:30:49;20.55;;;4.28;;
13941;SDS011;7043;51.630;7.254;2023-11-19T12:33:16;18.45;;;4.05;;
13941;SDS011;7043;51.630;7.254;2023-11-19T12:35:43;20.98;;;4.68;;
13941;SDS011;7043;51.630;7.254;2023-11-19T12:38:23;14.55;;;4.05;;
13941;SDS011;7043;51.630;7.254;2023-11-19T12:43:31;17.58;;;4.63;;
13941;SDS011;7043;51.630;7.254;2023-11-19T12:46:00;17.10;;;4.47;;
13941;SDS011;7043;51.630;7.254;2023-11-19T12:48:29;17.37;;;4.30;;
13941;SDS011;7043;51.630;7.254;2023-11-19T12:51:04;18.58;;;4.55;;
13941;SDS011;7043;51.630;7.254;2023-11-19T12:53:47;16.23;;;4.50;;
13941;SDS011;7043;51.630;7.254;2023-11-19T12:56:13;17.93;;;4.27;;
13941;SDS011;7043;51.630;7.254;2023-11-19T12:58:43;20.53;;;4.47;;
13941;SDS011;7043;51.630;7.254;2023-11-19T13:01:10;17.00;;;4.33;;
13941;SDS011;7043;51.630;7.254;2023-11-19T13:03:44;18.53;;;3.80;;
13941;SDS011;7043;51.630;7.254;2023-11-19T13:06:11;19.77;;;5.03;;
13941;SDS011;7043;51.630;7.254;2023-11-19T13:08:47;18.20;;;3.67;;
13941;SDS011;7043;51.630;7.254;2023-11-19T13:11:15;17.43;;;5.00;;
13941;SDS011;7043;51.630;7.254;2023-11-19T13:16:21;13.00;;;3.83;;
13941;SDS011;7043;51.630;7.254;2023-11-19T13:18:47;18.33;;;4.67;;
13941;SDS011;7043;51.630;7.254;2023-11-19T13:21:13;16.57;;;4.80;;
13941;SDS011;7043;51.630;7.254;2023-11-19T13:23:39;19.73;;;4.93;;
13941;SDS011;7043;51.630;7.254;2023-11-19T13:26:05;21.00;;;4.87;;
13941;SDS011;7043;51.630;7.254;2023-11-19T13:28:32;13.83;;;4.77;;
13941;SDS011;7043;51.630;7.254;2023-11-19T13:30:58;20.30;;;5.93;;
13941;SDS011;7043;51.630;7.254;2023-11-19T13:33:24;17.50;;;4.83;;
13941;SDS011;7043;51.630;7.254;2023-11-19T13:35:51;22.20;;;5.23;;
13941;SDS011;7043;51.630;7.254;2023-11-19T13:38:18;20.47;;;5.30;;
13941;SDS011;7043;51.630;7.254;2023-11-19T13:40:44;15.03;;;4.10;;
13941;SDS011;7043;51.630;7.254;2023-11-19T13:43:10;18.00;;;4.30;;
13941;SDS011;7043;51.630;7.254;2023-11-19T13:45:36;15.43;;;4.33;;
13941;SDS011;7043;51.630;7.254;2023-11-19T13:48:02;14.63;;;3.83;;
13941;SDS011;7043;51.630;7.254;2023-11-19T13:50:29;18.93;;;4.07;;
13941;SDS011;7043;51.630;7.254;2023-11-19T13:52:55;15.50;;;3.73;;
13941;SDS011;7043;51.630;7.254;2023-11-19T13:55:21;16.80;;;4.20;;
13941;SDS011;7043;51.630;7.254;2023-11-19T13:57:47;16.70;;;4.60;;
13941;SDS011;7043;51.630;7.254;2023-11-19T14:00:14;14.77;;;4.13;;
13941;SDS011;7043;51.630;7.254;2023-11-19T14:02:48;14.17;;;4.23;;
13941;SDS011;7043;51.630;7.254;2023-11-19T14:05:15;14.63;;;4.83;;
13941;SDS011;7043;51.630;7.254;2023-11-19T14:07:44;15.53;;;3.97;;
13941;SDS011;7043;51.630;7.254;2023-11-19T14:10:13;18.63;;;4.47;;
13941;SDS011;7043;51.630;7.254;2023-11-19T14:12:40;17.33;;;4.00;;
13941;SDS011;7043;51.630;7.254;2023-11-19T14:15:07;15.03;;;4.00;;
13941;SDS011;7043;51.630;7.254;2023-11-19T14:17:34;14.63;;;4.30;;
13941;SDS011;7043;51.630;7.254;2023-11-19T14:20:09;17.37;;;4.30;;
13941;SDS011;7043;51.630;7.254;2023-11-19T14:22:43;19.23;;;4.37;;
13941;SDS011;7043;51.630;7.254;2023-11-19T14:25:17;16.13;;;3.97;;
13941;SDS011;7043;51.630;7.254;2023-11-19T14:27:48;13.53;;;4.00;;
13941;SDS011;7043;51.630;7.254;2023-11-19T14:30:14;13.50;;;4.13;;
13941;SDS011;7043;51.630;7.254;2023-11-19T14:32:41;15.03;;;4.57;;
13941;SDS011;7043;51.630;7.254;2023-11-19T14:35:09;16.10;;;5.07;;
13941;SDS011;7043;51.630;7.254;2023-11-19T14:37:35;20.00;;;5.50;;
13941;SDS011;7043;51.630;7.254;2023-11-19T14:40:02;21.43;;;5.53;;
13941;SDS011;7043;51.630;7.254;2023-11-19T14:42:30;19.03;;;4.60;;
13941;SDS011;7043;51.630;7.254;2023-11-19T14:44:56;14.10;;;4.80;;
13941;SDS011;7043;51.630;7.254;2023-11-19T14:47:22;14.63;;;4.20;;
13941;SDS011;7043;51.630;7.254;2023-11-19T14:49:48;15.20;;;3.77;;
13941;SDS011;7043;51.630;7.254;2023-11-19T14:52:14;15.83;;;5.07;;
13941;SDS011;7043;51.630;7.254;2023-11-19T14:54:40;19.50;;;5.47;;
13941;SDS011;7043;51.630;7.254;2023-11-19T14:57:06;13.63;;;4.13;;
13941;SDS011;7043;51.630;7.254;2023-11-19T14:59:36;21.47;;;9.37;;
13941;SDS011;7043;51.630;7.254;2023-11-19T15:02:02;15.63;;;7.73;;
13941;SDS011;7043;51.630;7.254;2023-11-19T15:04:28;16.47;;;6.93;;
13941;SDS011;7043;51.630;7.254;2023-11-19T15:06:58;12.40;;;4.23;;
13941;SDS011;7043;51.630;7.254;2023-11-19T15:09:24;14.00;;;4.53;;
13941;SDS011;7043;51.630;7.254;2023-11-19T15:11:51;17.90;;;5.93;;